createdAt,value
2018-10-11T00:02:03.321Z,24.30
2018-10-11T00:04:31.746Z,23.70
2018-10-11T00:07:00.268Z,23.70
2018-10-11T00:09:28.693Z,23.07
2018-10-11T00:11:57.594Z,24.03
2018-10-11T00:14:26.021Z,25.20
2018-10-11T00:16:54.424Z,26.57
2018-10-11T00:19:22.897Z,26.27
2018-10-11T00:21:51.494Z,30.03
2018-10-11T00:24:19.949Z,24.63
2018-10-11T00:26:48.399Z,23.77
2018-10-11T00:29:16.791Z,24.90
2018-10-11T00:31:45.286Z,24.37
2018-10-11T00:34:13.708Z,23.40
2018-10-11T00:36:42.209Z,25.87
2018-10-11T00:39:10.644Z,23.63
2018-10-11T00:44:16.086Z,24.37
2018-10-11T00:46:46.150Z,23.87
2018-10-11T00:49:14.605Z,24.70
2018-10-11T00:51:43.004Z,24.43
2018-10-11T00:54:11.427Z,27.77
2018-10-11T00:56:40.244Z,25.03
2018-10-11T00:59:09.401Z,23.73
2018-10-11T01:01:37.859Z,24.80
2018-10-11T01:04:06.242Z,25.67
2018-10-11T01:06:34.681Z,25.93
2018-10-11T01:09:03.277Z,24.83
2018-10-11T01:11:31.767Z,24.57
2018-10-11T01:14:00.213Z,24.63
2018-10-11T01:16:28.565Z,26.10
2018-10-11T01:18:57.209Z,25.17
2018-10-11T01:21:25.771Z,27.77
2018-10-11T01:23:54.372Z,25.83
2018-10-11T01:26:22.838Z,25.93
2018-10-11T01:28:51.313Z,30.47
2018-10-11T01:31:21.685Z,30.97
2018-10-11T01:33:50.440Z,27.70
2018-10-11T01:36:19.238Z,25.63
2018-10-11T01:38:50.110Z,25.53
2018-10-11T01:41:18.553Z,25.33
2018-10-11T01:43:47.014Z,25.80
2018-10-11T01:46:15.428Z,24.93
2018-10-11T01:48:43.859Z,24.83
2018-10-11T01:51:12.271Z,25.47
2018-10-11T01:53:40.711Z,26.73
2018-10-11T01:56:09.470Z,25.90
2018-10-11T01:58:44.578Z,26.97
2018-10-11T02:01:12.963Z,28.17
2018-10-11T02:03:41.539Z,26.40
2018-10-11T02:06:11.357Z,28.77
2018-10-11T02:08:39.833Z,27.63
2018-10-11T02:11:08.307Z,25.87
2018-10-11T02:13:36.779Z,26.57
2018-10-11T02:16:05.229Z,26.93
2018-10-11T02:18:33.643Z,25.87
2018-10-11T02:21:02.011Z,27.60
2018-10-11T02:23:30.569Z,27.00
2018-10-11T02:25:59.111Z,25.83
2018-10-11T02:28:27.645Z,27.50
2018-10-11T02:30:57.394Z,28.13
2018-10-11T02:33:25.839Z,25.17
2018-10-11T02:35:54.223Z,26.60
2018-10-11T02:38:22.613Z,26.73
2018-10-11T02:40:51.103Z,28.17
2018-10-11T02:43:19.510Z,27.13
2018-10-11T02:45:47.959Z,27.60
2018-10-11T02:48:16.330Z,28.63
2018-10-11T02:50:44.851Z,29.27
2018-10-11T02:53:13.381Z,29.30
2018-10-11T02:55:42.212Z,27.97
2018-10-11T02:58:21.959Z,28.90
2018-10-11T03:00:50.418Z,28.47
2018-10-11T03:03:33.716Z,29.43
2018-10-11T03:06:02.439Z,28.27
2018-10-11T03:08:30.905Z,28.80
2018-10-11T03:10:59.586Z,27.27
2018-10-11T03:13:27.996Z,28.43
2018-10-11T03:15:56.489Z,28.97
2018-10-11T03:18:24.921Z,28.73
2018-10-11T03:20:53.840Z,29.67
2018-10-11T03:23:22.316Z,29.83
2018-10-11T03:25:50.730Z,28.20
2018-10-11T03:28:19.218Z,33.23
2018-10-11T03:30:48.376Z,29.13
2018-10-11T03:33:17.355Z,30.13
2018-10-11T03:35:45.944Z,28.57
2018-10-11T03:38:14.628Z,31.00
2018-10-11T03:40:43.540Z,29.40
2018-10-11T03:43:12.079Z,29.60
2018-10-11T03:45:40.444Z,29.87
2018-10-11T03:48:09.061Z,28.87
2018-10-11T03:50:37.693Z,30.27
2018-10-11T03:53:06.233Z,29.13
2018-10-11T03:55:34.596Z,31.47
2018-10-11T03:58:03.033Z,29.33
2018-10-11T04:00:31.502Z,30.93
2018-10-11T04:03:00.046Z,31.07
2018-10-11T04:05:28.421Z,32.40
2018-10-11T04:07:58.035Z,30.40
2018-10-11T04:10:26.459Z,29.70
2018-10-11T04:12:54.860Z,30.90
2018-10-11T04:15:23.387Z,30.67
2018-10-11T04:17:51.773Z,32.73
2018-10-11T04:20:20.157Z,30.10
2018-10-11T04:22:48.605Z,30.17
2018-10-11T04:25:17.049Z,31.10
2018-10-11T04:27:45.563Z,31.20
2018-10-11T04:30:14.117Z,29.40
2018-10-11T04:32:42.563Z,29.40
2018-10-11T04:35:11.085Z,29.83
2018-10-11T04:37:39.617Z,30.53
2018-10-11T04:40:08.072Z,31.63
2018-10-11T04:42:36.729Z,34.60
2018-10-11T04:45:05.353Z,32.67
2018-10-11T04:47:33.715Z,30.60
2018-10-11T04:50:02.243Z,30.57
2018-10-11T04:52:30.705Z,29.17
2018-10-11T04:54:59.167Z,31.60
2018-10-11T04:57:27.586Z,35.87
2018-10-11T04:59:56.085Z,31.40
2018-10-11T05:02:24.600Z,34.03
2018-10-11T05:04:53.224Z,31.90
2018-10-11T05:07:21.631Z,30.73
2018-10-11T05:09:50.040Z,31.30
2018-10-11T05:12:18.557Z,32.83
2018-10-11T05:14:47.012Z,31.63
2018-10-11T05:17:15.517Z,31.10
2018-10-11T05:19:43.975Z,31.03
2018-10-11T05:22:12.344Z,30.97
2018-10-11T05:24:40.860Z,31.60
2018-10-11T05:27:09.283Z,32.17
2018-10-11T05:29:37.639Z,32.33
2018-10-11T05:32:06.072Z,31.03
2018-10-11T05:34:34.448Z,32.83
2018-10-11T05:37:02.914Z,32.27
2018-10-11T05:39:31.463Z,35.60
2018-10-11T05:42:00.042Z,32.20
2018-10-11T05:44:28.511Z,32.03
2018-10-11T05:46:57.021Z,33.07
2018-10-11T05:49:25.444Z,32.90
2018-10-11T05:51:53.864Z,33.37
2018-10-11T05:54:22.457Z,31.43
2018-10-11T05:56:50.873Z,34.93
2018-10-11T05:59:19.318Z,31.93
2018-10-11T06:01:47.698Z,33.13
2018-10-11T06:04:16.103Z,32.80
2018-10-11T06:06:47.455Z,34.07
2018-10-11T06:09:15.866Z,33.77
2018-10-11T06:11:44.708Z,31.70
2018-10-11T06:14:13.689Z,32.50
2018-10-11T06:16:42.289Z,33.17
2018-10-11T06:19:11.903Z,33.87
2018-10-11T06:21:40.285Z,34.63
2018-10-11T06:24:08.847Z,34.27
2018-10-11T06:26:37.340Z,33.63
2018-10-11T06:29:05.852Z,32.87
2018-10-11T06:31:34.247Z,35.27
2018-10-11T06:34:02.668Z,32.30
2018-10-11T06:36:31.245Z,30.87
2018-10-11T06:39:00.210Z,31.27
2018-10-11T06:41:28.977Z,31.67
2018-10-11T06:43:57.594Z,33.00
2018-10-11T06:46:26.135Z,30.70
2018-10-11T06:48:54.663Z,30.70
2018-10-11T06:51:32.544Z,32.10
2018-10-11T06:54:00.909Z,37.17
2018-10-11T06:56:29.439Z,30.70
2018-10-11T06:58:57.909Z,31.43
2018-10-11T07:01:26.281Z,32.10
2018-10-11T07:03:54.643Z,31.97
2018-10-11T07:06:23.109Z,33.80
2018-10-11T07:08:51.606Z,31.43
2018-10-11T07:11:20.041Z,32.13
2018-10-11T07:13:48.467Z,31.47
2018-10-11T07:16:16.836Z,30.53
2018-10-11T07:18:45.219Z,31.17
2018-10-11T07:21:13.657Z,34.13
2018-10-11T07:23:42.451Z,31.13
2018-10-11T07:26:10.965Z,33.03
2018-10-11T07:28:39.364Z,29.90
2018-10-11T07:31:07.928Z,29.63
2018-10-11T07:33:36.337Z,30.00
2018-10-11T07:36:05.040Z,30.97
2018-10-11T07:38:33.900Z,28.20
2018-10-11T07:41:02.382Z,29.13
2018-10-11T07:43:30.719Z,29.17
2018-10-11T07:45:59.165Z,28.40
2018-10-11T07:48:27.614Z,29.17
2018-10-11T07:50:55.927Z,28.30
2018-10-11T07:53:24.914Z,27.63
2018-10-11T07:55:53.292Z,27.87
2018-10-11T07:58:21.805Z,26.63
2018-10-11T08:00:50.379Z,26.57
2018-10-11T08:03:18.985Z,28.87
2018-10-11T08:05:47.305Z,27.27
2018-10-11T08:08:15.745Z,28.30
2018-10-11T08:10:44.246Z,26.37
2018-10-11T08:13:12.707Z,31.10
2018-10-11T08:15:41.103Z,29.93
2018-10-11T08:18:09.521Z,29.00
2018-10-11T08:20:38.012Z,26.83
2018-10-11T08:23:06.400Z,27.33
2018-10-11T08:25:35.118Z,28.90
2018-10-11T08:28:03.436Z,27.47
2018-10-11T08:30:31.970Z,29.80
2018-10-11T08:33:00.476Z,26.57
2018-10-11T08:35:28.769Z,25.50
2018-10-11T08:37:57.634Z,26.33
2018-10-11T08:40:26.040Z,26.43
2018-10-11T08:42:54.466Z,26.90
2018-10-11T08:45:22.900Z,24.70
2018-10-11T08:47:51.497Z,26.27
2018-10-11T08:50:20.200Z,24.33
2018-10-11T08:52:48.455Z,25.33
2018-10-11T08:55:16.965Z,24.87
2018-10-11T08:57:45.352Z,25.00
2018-10-11T09:00:13.821Z,24.47
2018-10-11T09:02:42.261Z,24.93
2018-10-11T09:05:11.357Z,25.40
2018-10-11T09:07:39.867Z,24.60
2018-10-11T09:10:08.514Z,24.17
2018-10-11T09:12:36.990Z,27.13
2018-10-11T09:15:05.524Z,25.10
2018-10-11T09:17:33.987Z,24.53
2018-10-11T09:20:02.494Z,23.70
2018-10-11T09:22:37.669Z,25.03
2018-10-11T09:25:06.109Z,26.67
2018-10-11T09:27:34.492Z,24.23
2018-10-11T09:30:02.959Z,24.33
2018-10-11T09:32:31.541Z,23.87
2018-10-11T09:35:00.043Z,23.20
2018-10-11T09:37:28.485Z,24.57
2018-10-11T09:39:56.907Z,24.90
2018-10-11T09:42:25.280Z,26.27
2018-10-11T09:44:53.912Z,23.83
2018-10-11T09:47:22.421Z,24.27
2018-10-11T09:49:50.995Z,24.43
2018-10-11T09:52:19.596Z,24.40
2018-10-11T09:54:48.210Z,24.93
2018-10-11T09:57:20.695Z,22.57
2018-10-11T09:59:49.097Z,21.63
2018-10-11T10:02:17.655Z,22.50
2018-10-11T10:04:48.246Z,21.83
2018-10-11T10:07:16.694Z,21.90
2018-10-11T10:09:45.817Z,21.33
2018-10-11T10:12:15.164Z,20.97
2018-10-11T10:14:44.319Z,22.80
2018-10-11T10:17:12.854Z,21.87
2018-10-11T10:19:41.743Z,20.53
2018-10-11T10:22:10.328Z,20.63
2018-10-11T10:24:38.748Z,22.30
2018-10-11T10:27:07.309Z,20.30
2018-10-11T10:29:37.175Z,20.83
2018-10-11T10:32:06.307Z,22.27
2018-10-11T10:34:34.854Z,21.17
2018-10-11T10:37:03.355Z,21.53
2018-10-11T10:39:31.901Z,20.27
2018-10-11T10:42:00.440Z,20.80
2018-10-11T10:44:28.917Z,22.97
2018-10-11T10:46:57.259Z,19.90
2018-10-11T10:49:25.681Z,20.33
2018-10-11T10:51:54.252Z,23.13
2018-10-11T10:54:31.159Z,22.03
2018-10-11T10:57:00.314Z,20.27
2018-10-11T10:59:28.839Z,19.33
2018-10-11T11:01:57.412Z,18.77
2018-10-11T11:04:26.176Z,22.13
2018-10-11T11:06:54.711Z,22.27
2018-10-11T11:09:23.285Z,20.23
2018-10-11T11:11:51.837Z,22.27
2018-10-11T11:14:22.305Z,17.37
2018-10-11T11:16:50.815Z,18.97
2018-10-11T11:19:19.649Z,18.67
2018-10-11T11:21:48.100Z,18.90
2018-10-11T11:24:16.659Z,21.03
2018-10-11T11:26:45.310Z,17.20
2018-10-11T11:29:13.730Z,20.50
2018-10-11T11:31:42.268Z,15.57
2018-10-11T11:34:10.769Z,17.53
2018-10-11T11:36:39.183Z,16.57
2018-10-11T11:39:09.411Z,17.77
2018-10-11T11:41:37.950Z,19.70
2018-10-11T11:44:06.321Z,16.37
2018-10-11T11:46:34.861Z,19.87
2018-10-11T11:49:03.245Z,20.07
2018-10-11T11:51:31.697Z,17.77
2018-10-11T11:54:00.239Z,18.63
2018-10-11T11:56:28.728Z,15.97
2018-10-11T11:58:57.310Z,17.83
2018-10-11T12:01:25.912Z,16.33
2018-10-11T12:03:54.523Z,17.47
2018-10-11T12:06:23.159Z,17.73
2018-10-11T12:08:51.650Z,16.50
2018-10-11T12:11:20.104Z,19.57
2018-10-11T12:13:48.546Z,19.03
2018-10-11T12:16:17.095Z,18.70
2018-10-11T12:18:45.574Z,19.33
2018-10-11T12:21:13.979Z,17.40
2018-10-11T12:23:42.537Z,17.00
2018-10-11T12:26:11.031Z,17.73
2018-10-11T12:28:39.773Z,20.93
2018-10-11T12:31:08.358Z,18.53
2018-10-11T12:33:36.812Z,16.87
2018-10-11T12:36:05.850Z,17.10
2018-10-11T12:38:34.265Z,17.47
2018-10-11T12:41:02.868Z,21.17
2018-10-11T12:43:31.374Z,18.03
2018-10-11T12:45:59.884Z,22.53
2018-10-11T12:48:28.389Z,15.73
2018-10-11T12:50:57.149Z,21.63
2018-10-11T12:53:25.687Z,18.30
2018-10-11T12:55:54.326Z,17.00
2018-10-11T12:58:22.835Z,17.90
2018-10-11T13:00:51.484Z,16.30
2018-10-11T13:03:20.693Z,15.80
2018-10-11T13:05:49.110Z,16.07
2018-10-11T13:08:17.672Z,15.87
2018-10-11T13:10:46.133Z,17.03
2018-10-11T13:13:14.629Z,15.27
2018-10-11T13:15:43.257Z,16.57
2018-10-11T13:18:11.674Z,15.40
2018-10-11T13:20:40.051Z,16.23
2018-10-11T13:23:12.288Z,17.90
2018-10-11T13:25:37.264Z,15.43
2018-10-11T13:28:05.676Z,17.80
2018-10-11T13:30:34.108Z,16.53
2018-10-11T13:33:02.968Z,21.77
2018-10-11T13:35:31.386Z,22.40
2018-10-11T13:37:59.913Z,23.43
2018-10-11T13:40:28.418Z,18.17
2018-10-11T13:42:56.919Z,23.50
2018-10-11T13:45:25.338Z,20.83
2018-10-11T13:47:53.730Z,17.07
2018-10-11T13:50:22.292Z,15.87
2018-10-11T13:52:50.867Z,15.27
2018-10-11T13:55:19.208Z,17.03
2018-10-11T13:57:47.637Z,17.57
2018-10-11T14:00:16.175Z,19.90
2018-10-11T14:02:44.627Z,16.70
2018-10-11T14:05:13.038Z,19.23
2018-10-11T14:07:41.515Z,16.97
2018-10-11T14:10:09.914Z,15.17
2018-10-11T14:12:38.413Z,18.40
2018-10-11T14:15:07.788Z,15.37
2018-10-11T14:17:36.190Z,17.17
2018-10-11T14:20:04.577Z,13.97
2018-10-11T14:22:33.038Z,15.13
2018-10-11T14:25:01.621Z,16.87
2018-10-11T14:27:30.016Z,15.33
2018-10-11T14:29:58.596Z,16.97
2018-10-11T14:32:27.297Z,22.57
2018-10-11T14:34:55.780Z,16.33
2018-10-11T14:37:24.297Z,17.90
2018-10-11T14:39:52.799Z,15.17
2018-10-11T14:42:21.276Z,15.27
2018-10-11T14:44:49.762Z,17.67
2018-10-11T14:47:18.153Z,17.50
2018-10-11T14:49:46.737Z,17.80
2018-10-11T14:52:15.223Z,17.47
2018-10-11T14:54:43.744Z,17.43
2018-10-11T14:57:12.214Z,16.97
2018-10-11T14:59:40.758Z,14.00
2018-10-11T15:02:09.273Z,15.40
2018-10-11T15:04:37.823Z,17.23
2018-10-11T15:07:06.431Z,15.63
2018-10-11T15:09:34.883Z,15.93
2018-10-11T15:12:03.299Z,15.77
2018-10-11T15:14:31.825Z,15.10
2018-10-11T15:17:00.257Z,16.93
2018-10-11T15:19:28.684Z,15.97
2018-10-11T15:21:57.326Z,18.97
2018-10-11T15:24:25.779Z,16.60
2018-10-11T15:26:54.223Z,19.77
2018-10-11T15:29:22.708Z,14.30
2018-10-11T15:31:51.074Z,14.97
2018-10-11T15:34:19.878Z,18.37
2018-10-11T15:36:48.362Z,16.63
2018-10-11T15:39:16.738Z,14.50
2018-10-11T15:41:45.181Z,16.07
2018-10-11T15:44:13.609Z,16.60
2018-10-11T15:46:42.419Z,15.87
2018-10-11T15:49:10.944Z,16.93
2018-10-11T15:51:39.549Z,18.87
2018-10-11T15:54:08.047Z,14.70
2018-10-11T15:56:36.911Z,16.60
2018-10-11T15:59:05.358Z,22.60
2018-10-11T16:01:34.926Z,24.87
2018-10-11T16:04:03.291Z,20.20
2018-10-11T16:06:31.699Z,20.03
2018-10-11T16:09:00.169Z,19.20
2018-10-11T16:11:28.521Z,21.43
2018-10-11T16:13:57.249Z,18.40
2018-10-11T16:16:25.704Z,15.87
2018-10-11T16:18:54.451Z,14.97
2018-10-11T16:21:22.936Z,21.20
2018-10-11T16:23:51.365Z,20.27
2018-10-11T16:26:19.834Z,17.13
2018-10-11T16:28:48.291Z,15.70
2018-10-11T16:31:16.771Z,17.77
2018-10-11T16:33:45.197Z,18.33
2018-10-11T16:36:15.092Z,17.33
2018-10-11T16:38:43.583Z,15.20
2018-10-11T16:41:12.086Z,16.23
2018-10-11T16:43:40.646Z,15.07
2018-10-11T16:46:09.032Z,16.67
2018-10-11T16:48:37.500Z,17.00
2018-10-11T16:51:06.139Z,21.77
2018-10-11T16:53:34.535Z,16.33
2018-10-11T16:56:03.030Z,18.73
2018-10-11T16:58:31.501Z,21.77
2018-10-11T17:00:59.992Z,21.47
2018-10-11T17:03:28.733Z,20.10
2018-10-11T17:05:57.371Z,37.40
2018-10-11T17:08:26.122Z,23.70
2018-10-11T17:10:54.747Z,27.37
2018-10-11T17:13:23.213Z,27.90
2018-10-11T17:15:52.193Z,34.30
2018-10-11T17:18:21.003Z,27.70
2018-10-11T17:20:49.884Z,32.73
2018-10-11T17:23:18.404Z,26.47
2018-10-11T17:25:46.858Z,22.80
2018-10-11T17:28:18.639Z,20.90
2018-10-11T17:30:47.098Z,19.73
2018-10-11T17:33:15.573Z,21.93
2018-10-11T17:35:44.113Z,20.97
2018-10-11T17:38:12.578Z,24.13
2018-10-11T17:40:41.039Z,21.53
2018-10-11T17:43:09.560Z,21.37
2018-10-11T17:45:38.061Z,17.57
2018-10-11T17:48:06.575Z,22.23
2018-10-11T17:50:35.284Z,21.73
2018-10-11T17:53:03.766Z,33.03
2018-10-11T17:55:32.246Z,36.67
2018-10-11T17:58:00.683Z,26.93
2018-10-11T18:00:29.258Z,25.27
2018-10-11T18:02:57.822Z,31.40
2018-10-11T18:05:26.424Z,25.20
2018-10-11T18:07:54.897Z,25.57
2018-10-11T18:10:23.511Z,19.37
2018-10-11T18:12:52.091Z,24.00
2018-10-11T18:15:20.608Z,18.73
2018-10-11T18:17:49.068Z,14.97
2018-10-11T18:20:17.761Z,16.60
2018-10-11T18:22:46.353Z,17.83
2018-10-11T18:25:14.991Z,20.10
2018-10-11T18:27:43.649Z,18.50
2018-10-11T18:30:12.730Z,17.37
2018-10-11T18:32:41.729Z,16.47
2018-10-11T18:35:11.416Z,15.10
2018-10-11T18:37:40.009Z,15.27
2018-10-11T18:40:09.078Z,14.30
2018-10-11T18:42:37.693Z,17.30
2018-10-11T18:45:07.168Z,16.07
2018-10-11T18:47:35.702Z,16.27
2018-10-11T18:50:04.307Z,15.67
2018-10-11T18:52:33.029Z,15.37
2018-10-11T18:55:01.880Z,17.07
2018-10-11T18:57:30.740Z,16.23
2018-10-11T18:59:59.422Z,14.30
2018-10-11T19:02:28.356Z,19.27
2018-10-11T19:04:57.053Z,14.47
2018-10-11T19:07:25.962Z,17.93
2018-10-11T19:09:54.438Z,18.27
2018-10-11T19:12:23.070Z,19.67
2018-10-11T19:14:51.612Z,19.00
2018-10-11T19:17:20.373Z,15.50
2018-10-11T19:19:49.358Z,17.43
2018-10-11T19:22:18.389Z,18.87
2018-10-11T19:24:47.253Z,14.20
2018-10-11T19:27:16.187Z,15.13
2018-10-11T19:29:44.996Z,15.87
2018-10-11T19:32:13.664Z,20.43
2018-10-11T19:34:42.462Z,18.57
2018-10-11T19:37:11.426Z,21.07
2018-10-11T19:39:40.085Z,19.37
2018-10-11T19:42:09.297Z,18.73
2018-10-11T19:44:38.249Z,15.43
2018-10-11T19:47:07.365Z,14.13
2018-10-11T19:49:36.631Z,16.40
2018-10-11T19:52:05.618Z,14.17
2018-10-11T19:54:34.787Z,14.57
2018-10-11T19:57:03.750Z,16.13
2018-10-11T19:59:32.845Z,18.67
2018-10-11T20:02:02.322Z,14.90
2018-10-11T20:04:31.160Z,19.33
2018-10-11T20:07:00.218Z,17.90
2018-10-11T20:09:29.179Z,15.83
2018-10-11T20:11:58.167Z,15.13
2018-10-11T20:14:26.991Z,14.10
2018-10-11T20:16:55.805Z,18.17
2018-10-11T20:19:24.699Z,14.60
2018-10-11T20:21:53.517Z,14.80
2018-10-11T20:24:22.649Z,16.87
2018-10-11T20:26:51.643Z,16.73
2018-10-11T20:29:20.607Z,15.93
2018-10-11T20:31:49.461Z,22.13
2018-10-11T20:34:18.527Z,15.67
2018-10-11T20:36:48.190Z,16.33
2018-10-11T20:39:16.997Z,15.03
2018-10-11T20:41:45.965Z,18.47
2018-10-11T20:44:14.700Z,15.37
2018-10-11T20:46:43.350Z,14.60
2018-10-11T20:49:12.342Z,15.90
2018-10-11T20:51:41.259Z,16.10
2018-10-11T20:54:10.003Z,21.33
2018-10-11T20:56:38.714Z,18.20
2018-10-11T20:59:09.602Z,19.57
2018-10-11T21:01:38.538Z,17.80
2018-10-11T21:04:07.205Z,19.70
2018-10-11T21:06:35.942Z,13.97
2018-10-11T21:09:06.600Z,15.37
2018-10-11T21:11:35.283Z,14.67
2018-10-11T21:14:04.140Z,16.43
2018-10-11T21:16:32.776Z,17.57
2018-10-11T21:19:01.262Z,16.70
2018-10-11T21:21:30.150Z,15.33
2018-10-11T21:23:58.810Z,15.17
2018-10-11T21:26:27.300Z,15.33
2018-10-11T21:28:56.153Z,20.93
2018-10-11T21:31:24.866Z,18.17
2018-10-11T21:33:53.400Z,21.00
2018-10-11T21:36:21.900Z,20.57
2018-10-11T21:38:50.332Z,16.73
2018-10-11T21:41:18.712Z,16.40
2018-10-11T21:43:47.190Z,21.33
2018-10-11T21:46:15.818Z,14.67
2018-10-11T21:48:44.212Z,17.37
2018-10-11T21:51:12.622Z,15.43
2018-10-11T21:53:41.112Z,13.70
2018-10-11T21:56:09.523Z,21.80
2018-10-11T21:58:37.908Z,14.83
2018-10-11T22:01:11.657Z,15.07
2018-10-11T22:03:40.101Z,14.47
2018-10-11T22:06:08.736Z,14.43
2018-10-11T22:08:37.158Z,17.77
2018-10-11T22:11:05.510Z,16.23
2018-10-11T22:13:34.010Z,16.30
2018-10-11T22:16:04.048Z,17.90
2018-10-11T22:18:32.491Z,16.53
2018-10-11T22:21:00.999Z,17.37
2018-10-11T22:23:29.599Z,18.10
2018-10-11T22:25:58.222Z,19.83
2018-10-11T22:28:26.848Z,14.97
2018-10-11T22:30:55.438Z,15.70
2018-10-11T22:33:24.551Z,17.97
2018-10-11T22:35:53.560Z,15.63
2018-10-11T22:38:21.935Z,16.20
2018-10-11T22:40:50.377Z,18.07
2018-10-11T22:43:18.843Z,16.50
2018-10-11T22:45:47.550Z,17.73
2018-10-11T22:48:16.020Z,15.10
2018-10-11T22:50:44.509Z,18.30
2018-10-11T22:53:12.990Z,18.07
2018-10-11T22:55:41.374Z,16.10
2018-10-11T22:58:09.735Z,16.70
2018-10-11T23:00:38.162Z,16.37
2018-10-11T23:03:06.529Z,19.90
2018-10-11T23:05:34.941Z,16.47
2018-10-11T23:08:03.345Z,17.40
2018-10-11T23:10:31.832Z,16.63
2018-10-11T23:13:00.249Z,16.47
2018-10-11T23:15:28.667Z,17.10
2018-10-11T23:17:57.029Z,15.70
2018-10-11T23:20:25.385Z,22.00
2018-10-11T23:22:56.700Z,18.33
2018-10-11T23:25:25.119Z,15.77
2018-10-11T23:27:53.503Z,14.27
2018-10-11T23:30:21.960Z,16.37
2018-10-11T23:32:50.344Z,16.83
2018-10-11T23:35:18.719Z,21.50
2018-10-11T23:37:47.108Z,21.90
2018-10-11T23:40:15.547Z,19.63
2018-10-11T23:42:43.997Z,19.63
2018-10-11T23:45:13.400Z,15.47
2018-10-11T23:47:42.736Z,15.27
2018-10-11T23:50:11.287Z,20.07
2018-10-11T23:52:39.773Z,16.07
2018-10-11T23:55:08.544Z,15.63
2018-10-11T23:57:37.034Z,17.70
